createdAt,value
2023-03-11T00:00:42.928Z,1.52
2023-03-11T00:03:18.492Z,0.45
2023-03-11T00:05:51.739Z,0.50
2023-03-11T00:08:25.614Z,0.32
2023-03-11T00:11:01.532Z,0.30
2023-03-11T00:13:33.465Z,0.30
2023-03-11T00:16:05.664Z,0.88
2023-03-11T00:18:37.219Z,0.52
2023-03-11T00:21:16.480Z,0.33
2023-03-11T00:23:48.443Z,4.32
2023-03-11T00:26:21.386Z,0.98
2023-03-11T00:28:53.029Z,0.20
2023-03-11T00:31:26.889Z,0.65
2023-03-11T00:33:58.699Z,0.22
2023-03-11T00:36:32.208Z,1.17
2023-03-11T00:39:08.210Z,0.32
2023-03-11T00:41:39.966Z,2.60
2023-03-11T00:44:13.047Z,0.77
2023-03-11T00:46:44.859Z,0.20
2023-03-11T00:49:16.412Z,0.43
2023-03-11T00:51:48.013Z,0.63
2023-03-11T00:54:19.563Z,0.05
2023-03-11T00:56:51.108Z,0.30
2023-03-11T00:59:22.799Z,0.47
2023-03-11T01:01:54.639Z,0.40
2023-03-11T01:04:27.390Z,0.25
2023-03-11T01:06:59.161Z,1.02
2023-03-11T01:09:30.656Z,1.95
2023-03-11T01:12:03.320Z,2.10
2023-03-11T01:14:36.399Z,0.35
2023-03-11T01:17:09.522Z,0.30
2023-03-11T01:19:41.155Z,1.17
2023-03-11T01:22:12.857Z,0.35
2023-03-11T01:24:44.545Z,0.77
2023-03-11T01:27:16.295Z,3.28
2023-03-11T01:29:47.815Z,1.85
2023-03-11T01:32:19.933Z,0.57
2023-03-11T01:34:51.444Z,0.30
2023-03-11T01:37:23.310Z,0.70
2023-03-11T01:39:57.616Z,0.98
2023-03-11T01:42:30.789Z,2.47
2023-03-11T01:45:02.327Z,1.08
2023-03-11T01:47:37.850Z,0.60
2023-03-11T01:50:13.958Z,0.40
2023-03-11T01:52:45.850Z,0.10
2023-03-11T01:55:19.154Z,0.35
2023-03-11T01:57:53.161Z,0.73
2023-03-11T02:00:25.061Z,0.70
2023-03-11T02:03:00.788Z,0.75
2023-03-11T02:05:35.941Z,0.28
2023-03-11T02:08:08.235Z,0.25
2023-03-11T02:10:42.567Z,1.17
2023-03-11T02:13:14.337Z,0.57
2023-03-11T02:15:46.399Z,0.45
2023-03-11T02:18:20.350Z,1.90
2023-03-11T02:21:10.195Z,0.45
2023-03-11T02:23:53.862Z,0.98
2023-03-11T02:26:41.182Z,0.60
2023-03-11T02:29:13.350Z,0.38
2023-03-11T02:31:46.285Z,0.60
2023-03-11T02:34:32.738Z,0.50
2023-03-11T02:37:07.090Z,1.67
2023-03-11T02:39:40.382Z,0.70
2023-03-11T02:42:32.797Z,0.60
2023-03-11T02:45:13.865Z,1.25
2023-03-11T02:47:45.391Z,0.50
2023-03-11T02:50:19.091Z,0.50
2023-03-11T02:52:52.076Z,1.42
2023-03-11T02:55:23.990Z,0.52
2023-03-11T02:57:55.545Z,0.57
2023-03-11T03:00:27.254Z,0.33
2023-03-11T03:02:58.798Z,1.70
2023-03-11T03:05:30.589Z,0.20
2023-03-11T03:08:02.959Z,1.65
2023-03-11T03:13:06.283Z,0.35
2023-03-11T03:15:38.835Z,0.40
2023-03-11T03:18:10.343Z,0.50
2023-03-11T03:20:41.854Z,1.40
2023-03-11T03:23:13.460Z,0.17
2023-03-11T03:25:45.710Z,1.20
2023-03-11T03:28:17.774Z,0.52
2023-03-11T03:30:49.281Z,1.75
2023-03-11T03:33:20.784Z,1.13
2023-03-11T03:35:52.320Z,0.20
2023-03-11T03:38:23.998Z,1.65
2023-03-11T03:40:55.951Z,0.75
2023-03-11T03:43:27.564Z,0.50
2023-03-11T03:46:01.895Z,0.70
2023-03-11T03:48:33.812Z,0.50
2023-03-11T03:51:13.213Z,0.52
2023-03-11T03:53:46.557Z,0.55
2023-03-11T03:56:18.971Z,0.30
2023-03-11T04:01:22.349Z,0.10
2023-03-11T04:03:53.892Z,0.55
2023-03-11T04:06:26.883Z,0.30
2023-03-11T04:08:58.395Z,2.28
2023-03-11T04:11:29.983Z,2.17
2023-03-11T04:14:02.519Z,0.35
2023-03-11T04:16:34.144Z,0.10
2023-03-11T04:19:08.442Z,1.27
2023-03-11T04:21:40.344Z,0.75
2023-03-11T04:24:11.873Z,0.88
2023-03-11T04:26:43.410Z,2.73
2023-03-11T04:29:17.617Z,0.55
2023-03-11T04:31:49.330Z,0.60
2023-03-11T04:34:20.912Z,0.65
2023-03-11T04:36:54.002Z,0.40
2023-03-11T04:39:25.513Z,0.57
2023-03-11T04:41:57.213Z,0.20
2023-03-11T04:44:28.873Z,1.38
2023-03-11T04:47:00.419Z,0.93
2023-03-11T04:49:31.897Z,1.77
2023-03-11T04:52:03.681Z,0.40
2023-03-11T04:54:35.554Z,0.60
2023-03-11T04:57:07.212Z,0.68
2023-03-11T04:59:38.803Z,1.38
2023-03-11T05:02:12.867Z,0.40
2023-03-11T05:04:45.397Z,0.75
2023-03-11T05:09:48.370Z,2.63
2023-03-11T05:12:20.450Z,1.40
2023-03-11T05:14:52.277Z,0.65
2023-03-11T05:17:24.871Z,1.20
2023-03-11T05:19:57.495Z,0.85
2023-03-11T05:22:29.061Z,1.80
2023-03-11T05:25:00.693Z,0.80
2023-03-11T05:27:33.120Z,0.80
2023-03-11T05:32:36.281Z,1.50
2023-03-11T05:35:08.331Z,0.63
2023-03-11T05:37:41.292Z,1.00
2023-03-11T05:40:12.851Z,1.08
2023-03-11T05:42:45.496Z,3.22
2023-03-11T05:45:17.029Z,0.68
2023-03-11T05:47:48.557Z,1.30
2023-03-11T05:50:20.140Z,2.87
2023-03-11T05:52:51.727Z,0.88
2023-03-11T05:55:23.223Z,2.88
2023-03-11T05:57:54.975Z,0.37
2023-03-11T06:00:29.311Z,0.80
2023-03-11T06:03:00.817Z,3.72
2023-03-11T06:05:32.276Z,0.83
2023-03-11T06:08:03.988Z,0.50
2023-03-11T06:10:35.501Z,2.17
2023-03-11T06:13:07.035Z,1.03
2023-03-11T06:15:38.606Z,0.87
2023-03-11T06:18:10.883Z,1.90
2023-03-11T06:20:42.702Z,5.28
2023-03-11T06:23:14.498Z,2.30
2023-03-11T06:25:58.678Z,0.47
2023-03-11T06:28:30.810Z,3.28
2023-03-11T06:31:15.496Z,1.05
2023-03-11T06:33:48.381Z,2.90
2023-03-11T06:36:20.670Z,1.88
2023-03-11T06:38:53.614Z,0.50
2023-03-11T06:41:25.749Z,0.73
2023-03-11T06:43:59.677Z,4.13
2023-03-11T06:46:31.273Z,2.72
2023-03-11T06:49:03.089Z,1.35
2023-03-11T06:51:34.852Z,3.88
2023-03-11T06:54:07.150Z,3.03
2023-03-11T06:56:38.719Z,3.03
2023-03-11T06:59:10.666Z,1.63
2023-03-11T07:01:42.152Z,6.80
2023-03-11T07:04:13.699Z,1.23
2023-03-11T07:06:45.275Z,3.08
2023-03-11T07:09:17.103Z,2.37
2023-03-11T07:11:48.803Z,0.50
2023-03-11T07:14:20.567Z,2.17
2023-03-11T07:16:52.475Z,0.80
2023-03-11T07:19:24.113Z,0.73
2023-03-11T07:21:55.761Z,4.10
2023-03-11T07:24:28.939Z,0.73
2023-03-11T07:27:00.523Z,2.90
2023-03-11T07:29:32.349Z,2.08
2023-03-11T07:32:04.134Z,1.48
2023-03-11T07:34:36.005Z,1.33
2023-03-11T07:37:07.572Z,2.25
2023-03-11T07:39:39.524Z,0.93
2023-03-11T07:42:11.340Z,3.45
2023-03-11T07:44:42.953Z,1.02
2023-03-11T07:47:14.441Z,2.15
2023-03-11T07:49:46.991Z,1.37
2023-03-11T07:52:18.950Z,2.08
2023-03-11T07:54:50.528Z,1.83
2023-03-11T07:57:22.431Z,2.08
2023-03-11T07:59:53.965Z,1.25
2023-03-11T08:02:25.592Z,2.13
2023-03-11T08:04:57.555Z,1.67
2023-03-11T08:07:31.709Z,2.17
2023-03-11T08:10:04.313Z,2.92
2023-03-11T08:12:37.027Z,0.95
2023-03-11T08:15:09.328Z,2.47
2023-03-11T08:17:40.855Z,2.42
2023-03-11T08:20:12.784Z,2.73
2023-03-11T08:22:57.353Z,1.80
2023-03-11T08:25:30.190Z,4.43
2023-03-11T08:28:01.727Z,4.80
2023-03-11T08:30:34.349Z,3.07
2023-03-11T08:33:06.085Z,0.95
2023-03-11T08:35:37.823Z,3.92
2023-03-11T08:38:09.799Z,0.75
2023-03-11T08:40:41.406Z,0.80
2023-03-11T08:43:13.925Z,3.30
2023-03-11T08:48:17.150Z,1.17
2023-03-11T08:50:54.359Z,1.60
2023-03-11T08:53:26.312Z,1.30
2023-03-11T08:55:57.851Z,1.60
2023-03-11T08:58:30.050Z,1.57
2023-03-11T09:01:01.909Z,3.00
2023-03-11T09:03:35.546Z,2.45
2023-03-11T09:06:11.351Z,1.27
2023-03-11T09:08:43.978Z,0.77
2023-03-11T09:11:17.984Z,2.15
2023-03-11T09:13:49.941Z,1.08
2023-03-11T09:16:23.095Z,0.63
2023-03-11T09:18:55.040Z,1.27
2023-03-11T09:21:26.595Z,0.90
2023-03-11T09:23:58.298Z,0.80
2023-03-11T09:26:31.094Z,0.38
2023-03-11T09:29:02.739Z,0.50
2023-03-11T09:31:34.256Z,2.15
2023-03-11T09:34:06.016Z,2.13
2023-03-11T09:36:37.714Z,0.98
2023-03-11T09:39:09.552Z,1.23
2023-03-11T09:41:57.595Z,1.38
2023-03-11T09:44:40.131Z,1.17
2023-03-11T09:47:38.019Z,0.32
2023-03-11T09:50:16.589Z,0.77
2023-03-11T09:53:11.838Z,2.55
2023-03-11T09:55:45.143Z,3.45
2023-03-11T09:58:39.337Z,1.17
2023-03-11T10:01:20.852Z,0.40
2023-03-11T10:03:56.552Z,1.17
2023-03-11T10:06:31.623Z,0.90
2023-03-11T10:09:40.431Z,1.35
2023-03-11T10:12:20.181Z,2.63
2023-03-11T10:15:06.743Z,1.40
2023-03-11T10:18:16.253Z,0.93
2023-03-11T10:21:06.278Z,0.03
2023-03-11T10:24:05.132Z,5.50
2023-03-11T10:26:41.646Z,1.85
2023-03-11T10:29:18.255Z,0.50
2023-03-11T10:32:10.759Z,2.35
2023-03-11T10:34:54.770Z,0.98
2023-03-11T10:37:48.402Z,1.08
2023-03-11T10:40:33.331Z,0.90
2023-03-11T10:43:12.390Z,1.20
2023-03-11T10:45:46.109Z,0.52
2023-03-11T10:48:19.770Z,0.15
2023-03-11T10:51:18.023Z,0.65
2023-03-11T10:53:54.837Z,1.63
2023-03-11T10:56:35.596Z,0.85
2023-03-11T10:59:30.033Z,5.57
2023-03-11T11:02:04.427Z,0.43
2023-03-11T11:04:39.582Z,3.25
2023-03-11T11:07:35.351Z,3.97
2023-03-11T11:10:16.215Z,1.02
2023-03-11T11:12:59.012Z,0.88
2023-03-11T11:15:40.397Z,3.40
2023-03-11T11:18:14.813Z,0.90
2023-03-11T11:21:04.746Z,4.88
2023-03-11T11:23:39.340Z,1.13
2023-03-11T11:26:25.883Z,1.45
2023-03-11T11:29:09.743Z,2.15
2023-03-11T11:31:44.802Z,0.82
2023-03-11T11:34:40.102Z,1.75
2023-03-11T11:37:13.584Z,2.50
2023-03-11T11:39:54.742Z,0.77
2023-03-11T11:42:31.396Z,1.02
2023-03-11T11:45:12.232Z,0.90
2023-03-11T11:47:48.345Z,2.13
2023-03-11T11:50:41.992Z,2.38
2023-03-11T11:53:29.677Z,1.40
2023-03-11T11:56:03.921Z,1.73
2023-03-11T11:58:37.624Z,2.08
2023-03-11T12:01:51.168Z,1.45
2023-03-11T12:04:45.864Z,0.57
2023-03-11T12:07:31.098Z,2.20
2023-03-11T12:10:28.614Z,1.70
2023-03-11T12:13:18.248Z,1.50
2023-03-11T12:15:59.930Z,3.67
2023-03-11T12:18:57.004Z,1.20
2023-03-11T12:21:45.790Z,3.08
2023-03-11T12:24:50.841Z,0.40
2023-03-11T12:27:32.724Z,0.40
2023-03-11T12:30:14.872Z,1.35
2023-03-11T12:32:52.599Z,1.35
2023-03-11T12:35:28.059Z,2.78
2023-03-11T12:38:17.370Z,0.63
2023-03-11T12:41:06.789Z,1.95
2023-03-11T12:43:38.551Z,3.00
2023-03-11T12:46:11.799Z,8.43
2023-03-11T12:49:08.384Z,1.27
2023-03-11T12:51:41.150Z,2.95
2023-03-11T12:54:32.367Z,3.35
2023-03-11T12:57:34.243Z,0.63
2023-03-11T13:00:18.199Z,0.85
2023-03-11T13:03:11.245Z,1.95
2023-03-11T13:05:57.539Z,1.35
2023-03-11T13:08:54.748Z,1.13
2023-03-11T13:11:32.185Z,2.20
2023-03-11T13:14:16.400Z,0.60
2023-03-11T13:16:48.619Z,2.00
2023-03-11T13:19:26.460Z,1.10
2023-03-11T13:22:00.412Z,1.38
2023-03-11T13:24:34.443Z,2.08
2023-03-11T13:27:20.517Z,1.02
2023-03-11T13:30:02.242Z,0.75
2023-03-11T13:33:05.032Z,2.42
2023-03-11T13:35:54.388Z,2.67
2023-03-11T13:38:57.951Z,3.08
2023-03-11T13:41:36.149Z,3.05
2023-03-11T13:44:19.748Z,1.00
2023-03-11T13:47:03.069Z,1.15
2023-03-11T13:49:40.289Z,1.98
2023-03-11T13:52:18.702Z,1.08
2023-03-11T13:55:02.601Z,4.40
2023-03-11T13:57:36.970Z,2.78
2023-03-11T14:02:56.010Z,3.78
2023-03-11T14:05:31.968Z,1.35
2023-03-11T14:08:34.956Z,0.63
2023-03-11T14:11:12.368Z,0.65
2023-03-11T14:13:50.082Z,2.38
2023-03-11T14:16:36.142Z,1.80
2023-03-11T14:19:29.059Z,3.47
2023-03-11T14:22:00.568Z,3.72
2023-03-11T14:24:32.551Z,2.75
2023-03-11T14:29:40.401Z,2.80
2023-03-11T14:32:30.687Z,1.45
2023-03-11T14:35:02.579Z,1.25
2023-03-11T14:40:39.250Z,1.42
2023-03-11T14:43:11.785Z,2.40
2023-03-11T14:45:43.820Z,2.95
2023-03-11T14:48:22.158Z,2.40
2023-03-11T14:50:56.582Z,2.13
2023-03-11T14:53:43.240Z,1.10
2023-03-11T14:56:24.738Z,1.73
2023-03-11T14:59:07.682Z,1.80
2023-03-11T15:01:42.540Z,2.53
2023-03-11T15:04:36.627Z,0.68
2023-03-11T15:07:08.207Z,3.55
2023-03-11T15:09:41.361Z,2.45
2023-03-11T15:12:34.539Z,2.20
2023-03-11T15:15:25.915Z,1.33
2023-03-11T15:18:01.527Z,2.57
2023-03-11T15:20:37.229Z,2.33
2023-03-11T15:23:21.803Z,2.58
2023-03-11T15:25:53.390Z,1.58
2023-03-11T15:28:29.147Z,2.00
2023-03-11T15:31:22.538Z,1.77
2023-03-11T15:33:54.404Z,4.35
2023-03-11T15:36:34.839Z,2.15
2023-03-11T15:39:11.320Z,1.65
2023-03-11T15:42:02.165Z,1.00
2023-03-11T15:44:41.341Z,6.07
2023-03-11T15:47:15.310Z,1.67
2023-03-11T15:49:47.217Z,1.33
2023-03-11T15:52:19.754Z,4.38
2023-03-11T15:54:55.831Z,1.95
2023-03-11T15:57:29.925Z,2.92
2023-03-11T16:00:02.350Z,2.88
2023-03-11T16:02:33.882Z,2.60
2023-03-11T16:05:13.922Z,1.48
2023-03-11T16:07:46.808Z,1.33
2023-03-11T16:10:22.232Z,0.85
2023-03-11T16:12:53.916Z,5.78
2023-03-11T16:15:31.593Z,1.52
2023-03-11T16:18:09.061Z,2.15
2023-03-11T16:20:44.193Z,1.80
2023-03-11T16:23:27.083Z,1.50
2023-03-11T16:26:02.039Z,5.10
2023-03-11T16:28:33.702Z,2.83
2023-03-11T16:31:05.432Z,2.60
2023-03-11T16:33:40.512Z,2.63
2023-03-11T16:36:12.027Z,0.90
2023-03-11T16:38:47.070Z,3.73
2023-03-11T16:41:18.911Z,3.80
2023-03-11T16:43:50.547Z,3.28
2023-03-11T16:46:22.154Z,2.00
2023-03-11T16:48:53.748Z,1.38
2023-03-11T16:51:25.273Z,1.17
2023-03-11T16:53:57.009Z,1.00
2023-03-11T16:56:28.658Z,2.15
2023-03-11T16:59:01.199Z,12.38
2023-03-11T17:01:33.089Z,7.00
2023-03-11T17:04:07.963Z,5.45
2023-03-11T17:06:40.197Z,5.15
2023-03-11T17:09:11.785Z,5.95
2023-03-11T17:11:43.350Z,3.80
2023-03-11T17:14:16.778Z,1.58
2023-03-11T17:16:48.501Z,1.83
2023-03-11T17:19:20.145Z,3.87
2023-03-11T17:21:51.962Z,4.68
2023-03-11T17:24:23.467Z,7.30
2023-03-11T17:26:55.052Z,4.00
2023-03-11T17:29:26.601Z,1.98
2023-03-11T17:31:58.476Z,2.03
2023-03-11T17:34:30.124Z,3.55
2023-03-11T17:37:01.667Z,1.50
2023-03-11T17:39:33.292Z,3.77
2023-03-11T17:42:05.062Z,1.70
2023-03-11T17:44:50.520Z,4.55
2023-03-11T17:47:25.978Z,4.43
2023-03-11T17:49:57.697Z,1.77
2023-03-11T17:52:29.576Z,3.75
2023-03-11T17:55:01.101Z,4.32
2023-03-11T17:57:44.481Z,4.13
2023-03-11T18:00:17.207Z,5.82
2023-03-11T18:02:51.218Z,3.20
2023-03-11T18:05:23.897Z,3.85
2023-03-11T18:07:55.521Z,5.28
2023-03-11T18:10:27.162Z,2.15
2023-03-11T18:12:58.632Z,2.85
2023-03-11T18:15:30.373Z,1.13
2023-03-11T18:18:01.899Z,1.30
2023-03-11T18:20:33.454Z,2.13
2023-03-11T18:23:05.543Z,2.17
2023-03-11T18:25:37.050Z,3.65
2023-03-11T18:28:08.599Z,3.80
2023-03-11T18:30:40.581Z,3.23
2023-03-11T18:33:13.108Z,3.60
2023-03-11T18:35:44.697Z,1.48
2023-03-11T18:38:16.489Z,2.28
2023-03-11T18:40:48.048Z,1.83
2023-03-11T18:43:19.511Z,3.25
2023-03-11T18:45:51.042Z,2.33
2023-03-11T18:48:22.863Z,3.90
2023-03-11T18:50:55.285Z,2.70
2023-03-11T18:56:00.562Z,3.65
2023-03-11T18:58:32.087Z,5.20
2023-03-11T19:01:15.616Z,1.47
2023-03-11T19:03:53.975Z,5.25
2023-03-11T19:06:28.109Z,6.45
2023-03-11T19:08:59.768Z,3.95
2023-03-11T19:11:31.305Z,5.97
2023-03-11T19:14:03.074Z,4.33
2023-03-11T19:16:34.704Z,3.05
2023-03-11T19:19:06.738Z,6.80
2023-03-11T19:21:38.327Z,4.38
2023-03-11T19:24:11.465Z,5.13
2023-03-11T19:26:45.702Z,7.78
2023-03-11T19:29:19.772Z,6.40
2023-03-11T19:31:51.686Z,3.92
2023-03-11T19:34:23.368Z,7.10
2023-03-11T19:36:57.146Z,5.83
2023-03-11T19:39:28.636Z,5.70
2023-03-11T19:42:00.421Z,2.90
2023-03-11T19:44:32.450Z,4.00
2023-03-11T19:47:04.093Z,2.78
2023-03-11T19:49:35.585Z,3.83
2023-03-11T19:52:11.880Z,4.97
2023-03-11T19:54:43.472Z,4.68
2023-03-11T19:57:18.563Z,3.20
2023-03-11T19:59:50.069Z,5.93
2023-03-11T20:02:22.198Z,3.50
2023-03-11T20:04:53.865Z,6.57
2023-03-11T20:07:25.547Z,4.32
2023-03-11T20:09:57.767Z,4.53
2023-03-11T20:12:29.429Z,5.03
2023-03-11T20:15:01.201Z,2.93
2023-03-11T20:17:32.933Z,4.00
2023-03-11T20:20:06.092Z,3.00
2023-03-11T20:22:38.733Z,2.63
2023-03-11T20:25:11.682Z,4.47
2023-03-11T20:27:43.248Z,4.30
2023-03-11T20:30:21.048Z,3.40
2023-03-11T20:32:54.575Z,10.23
2023-03-11T20:35:26.477Z,3.95
2023-03-11T20:37:59.645Z,4.78
2023-03-11T20:40:31.400Z,10.75
2023-03-11T20:43:03.410Z,3.75
2023-03-11T20:45:37.777Z,4.68
2023-03-11T20:48:09.616Z,4.18
2023-03-11T20:50:41.679Z,8.65
2023-03-11T20:53:13.324Z,4.30
2023-03-11T20:55:45.052Z,4.25
2023-03-11T20:58:18.188Z,3.60
2023-03-11T21:00:49.755Z,3.70
2023-03-11T21:03:21.672Z,8.05
2023-03-11T21:05:53.367Z,6.75
2023-03-11T21:08:25.246Z,6.35
2023-03-11T21:11:03.356Z,6.68
2023-03-11T21:13:36.189Z,3.92
2023-03-11T21:16:13.153Z,5.30
2023-03-11T21:18:49.477Z,2.78
2023-03-11T21:21:21.568Z,5.00
2023-03-11T21:23:54.710Z,7.88
2023-03-11T21:26:26.415Z,4.70
2023-03-11T21:28:58.055Z,6.53
2023-03-11T21:31:30.182Z,5.18
2023-03-11T21:34:04.261Z,9.02
2023-03-11T21:36:36.480Z,5.65
2023-03-11T21:39:09.032Z,6.18
2023-03-11T21:41:41.389Z,9.80
2023-03-11T21:46:45.188Z,4.65
2023-03-11T21:49:19.779Z,7.72
2023-03-11T21:51:52.419Z,7.80
2023-03-11T21:54:25.026Z,5.53
2023-03-11T21:56:56.873Z,6.70
2023-03-11T21:59:29.706Z,7.30
2023-03-11T22:02:03.281Z,10.80
2023-03-11T22:04:35.443Z,11.27
2023-03-11T22:07:07.321Z,8.52
2023-03-11T22:09:38.971Z,8.43
2023-03-11T22:12:10.703Z,10.25
2023-03-11T22:14:42.503Z,7.53
2023-03-11T22:17:14.502Z,11.30
2023-03-11T22:19:46.246Z,10.15
2023-03-11T22:22:17.839Z,10.23
2023-03-11T22:24:49.351Z,9.03
2023-03-11T22:27:20.782Z,8.63
2023-03-11T22:29:52.486Z,9.33
2023-03-11T22:32:24.039Z,6.72
2023-03-11T22:34:55.926Z,15.23
2023-03-11T22:37:28.290Z,7.97
2023-03-11T22:39:59.828Z,8.20
2023-03-11T22:42:31.460Z,7.68
2023-03-11T22:45:04.850Z,12.47
2023-03-11T22:47:36.399Z,7.07
2023-03-11T22:50:08.850Z,5.97
2023-03-11T22:55:11.888Z,17.15
2023-03-11T22:57:43.434Z,6.88
2023-03-11T23:00:21.578Z,8.23
2023-03-11T23:02:55.492Z,7.90
2023-03-11T23:05:27.309Z,9.90
2023-03-11T23:07:58.819Z,15.40
2023-03-11T23:10:30.326Z,7.17
2023-03-11T23:13:02.169Z,8.03
2023-03-11T23:15:33.698Z,8.55
2023-03-11T23:18:05.574Z,6.63
2023-03-11T23:20:39.356Z,4.03
2023-03-11T23:23:12.092Z,5.97
2023-03-11T23:25:43.733Z,24.92
2023-03-11T23:28:15.325Z,19.08
2023-03-11T23:30:46.988Z,15.97
2023-03-11T23:33:18.559Z,12.82
2023-03-11T23:35:50.321Z,13.27
2023-03-11T23:38:21.855Z,6.00
2023-03-11T23:40:53.423Z,10.17
2023-03-11T23:43:25.815Z,9.50
2023-03-11T23:48:29.204Z,10.27
2023-03-11T23:51:00.771Z,7.45
2023-03-11T23:53:32.817Z,33.33
2023-03-11T23:56:17.049Z,25.40
2023-03-11T23:58:48.703Z,11.13
